Time;durP1;ratioP1;P1;durP2;ratioP2;P2;SDS_P1;SDS_P2;PMS_P1;PMS_P2;Temp;Humidity;BMP_temperature;BMP_pressure;BME280_temperature;BME280_humidity;BME280_pressure;Samples;Min_cycle;Max_cycle;Signal;HPM_P1;HPM_P2
2023/08/27 00:00:57;;;;;;;29.10;9.35;;;;;;;22.11;100.00;99761.63;1423991;90;21449;-81
2023/08/27 00:03:23;;;;;;;14.60;8.00;;;;;;;22.21;100.00;99776.70;1424310;91;21405;-82
2023/08/27 00:05:50;;;;;;;14.18;8.60;;;;;;;22.15;100.00;99769.52;1425801;91;21440;-79
2023/08/27 00:08:17;;;;;;;13.72;8.43;;;;;;;22.15;100.00;99769.52;1431758;90;21434;-80
2023/08/27 00:10:44;;;;;;;8.75;7.72;;;;;;;22.11;100.00;99762.17;1428702;90;21608;-80
2023/08/27 00:13:10;;;;;;;9.50;7.08;;;;;;;22.05;100.00;99755.33;1433312;91;21405;-80
2023/08/27 00:15:36;;;;;;;18.02;7.85;;;;;;;22.05;100.00;99755.33;1428495;90;21598;-78
2023/08/27 00:18:04;;;;;;;11.33;7.62;;;;;;;22.11;100.00;99760.83;1430746;90;22768;-79
2023/08/27 00:20:33;;;;;;;10.68;7.35;;;;;;;22.06;100.00;99747.52;1425101;91;22309;-79
2023/08/27 00:22:59;;;;;;;11.10;7.65;;;;;;;22.09;100.00;99750.80;1425931;91;21539;-80
2023/08/27 00:25:25;;;;;;;10.10;8.48;;;;;;;22.08;100.00;99750.80;1431628;91;21400;-80
2023/08/27 00:27:51;;;;;;;11.97;7.15;;;;;;;22.03;100.00;99757.97;1427732;90;22344;-79
2023/08/27 00:30:17;;;;;;;14.70;7.45;;;;;;;21.98;100.00;99761.39;1426108;91;21536;-79
2023/08/27 00:32:43;;;;;;;12.43;8.20;;;;;;;21.85;100.00;99746.84;1425887;91;21948;-80
2023/08/27 00:35:09;;;;;;;10.10;7.85;;;;;;;21.85;100.00;99746.84;1425228;91;21385;-80
2023/08/27 00:37:38;;;;;;;12.55;7.67;;;;;;;21.88;100.00;99751.74;1407779;91;21525;-79
2023/08/27 00:40:07;;;;;;;13.90;8.00;;;;;;;21.86;100.00;99749.81;1435968;91;21553;-80
2023/08/27 00:42:33;;;;;;;16.10;8.25;;;;;;;21.84;100.00;99751.94;1437576;90;22187;-78
2023/08/27 00:45:00;;;;;;;10.60;8.65;;;;;;;21.81;100.00;99755.11;1434657;91;21527;-80
2023/08/27 00:47:27;;;;;;;11.55;8.90;;;;;;;21.79;100.00;99758.56;1433135;90;21367;-79
2023/08/27 00:49:53;;;;;;;13.43;8.23;;;;;;;21.74;100.00;99765.18;1439755;90;21375;-79
2023/08/27 00:52:20;;;;;;;18.87;7.85;;;;;;;21.67;100.00;99756.43;1419479;91;21355;-80
2023/08/27 00:54:48;;;;;;;12.82;8.60;;;;;;;21.67;100.00;99756.43;1431775;91;21919;-80
2023/08/27 00:57:15;;;;;;;9.83;7.08;;;;;;;21.70;100.00;99769.42;1422453;91;21437;-80
2023/08/27 00:59:42;;;;;;;12.05;7.75;;;;;;;21.70;100.00;99780.19;1426674;91;21571;-80
2023/08/27 01:02:08;;;;;;;8.38;6.90;;;;;;;21.66;100.00;99773.63;1428078;91;21487;-80
2023/08/27 01:04:35;;;;;;;13.93;8.75;;;;;;;21.65;100.00;99778.19;1412030;91;21524;-80
2023/08/27 01:07:06;;;;;;;11.03;8.75;;;;;;;21.62;100.00;99784.05;1435330;90;21368;-79
2023/08/27 01:09:40;;;;;;;14.23;9.05;;;;;;;21.54;100.00;99785.75;1427282;91;22331;-78
2023/08/27 01:12:32;;;;;;;14.65;9.55;;;;;;;21.46;100.00;99782.88;1433543;91;21456;-80
2023/08/27 01:15:00;;;;;;;10.80;8.65;;;;;;;21.41;100.00;99782.78;1400754;92;21416;-80
2023/08/27 01:17:28;;;;;;;24.90;10.32;;;;;;;21.40;100.00;99790.55;1429581;90;21405;-78
2023/08/27 01:19:54;;;;;;;13.93;8.15;;;;;;;21.41;100.00;99794.89;1440783;90;21382;-80
2023/08/27 01:22:20;;;;;;;12.03;8.10;;;;;;;21.39;100.00;99799.69;1426026;91;21377;-79
2023/08/27 01:24:46;;;;;;;11.70;7.92;;;;;;;21.34;100.00;99798.18;1424137;91;21442;-80
2023/08/27 01:27:24;;;;;;;9.33;8.33;;;;;;;21.29;100.00;99798.05;1428322;90;22167;-80
2023/08/27 01:30:15;;;;;;;10.15;7.55;;;;;;;21.24;100.00;99803.34;1435807;90;21486;-79
2023/08/27 01:33:03;;;;;;;15.00;8.98;;;;;;;21.19;100.00;99808.06;1421429;91;21436;-80
2023/08/27 01:35:31;;;;;;;15.28;8.10;;;;;;;21.16;100.00;99816.06;1433373;90;21552;-79
2023/08/27 01:37:57;;;;;;;12.68;9.18;;;;;;;21.08;100.00;99825.81;1433121;90;21464;-80
2023/08/27 01:40:26;;;;;;;19.57;8.30;;;;;;;21.00;100.00;99836.91;1429972;91;21384;-80
2023/08/27 01:42:53;;;;;;;15.72;7.53;;;;;;;20.93;100.00;99846.43;1424879;90;22235;-78
2023/08/27 01:45:19;;;;;;;11.60;7.42;;;;;;;20.89;100.00;99852.52;1440960;91;21419;-79
2023/08/27 01:47:45;;;;;;;9.48;7.08;;;;;;;20.86;100.00;99858.32;1432404;90;21546;-79
2023/08/27 01:50:12;;;;;;;12.23;7.58;;;;;;;20.81;100.00;99862.25;1427121;91;21392;-81
2023/08/27 01:52:38;;;;;;;15.18;8.20;;;;;;;20.76;100.00;99866.14;1426735;90;21382;-81
2023/08/27 01:55:05;;;;;;;17.98;8.98;;;;;;;20.66;100.00;99865.34;1423502;91;21415;-81
2023/08/27 01:57:31;;;;;;;11.83;8.70;;;;;;;20.65;100.00;99869.06;1429810;91;21398;-81
2023/08/27 01:59:58;;;;;;;11.83;8.38;;;;;;;20.66;100.00;99864.82;1419684;91;22302;-80
2023/08/27 02:02:24;;;;;;;10.85;8.50;;;;;;;20.67;100.00;99867.80;1426692;91;21340;-80
2023/08/27 02:04:51;;;;;;;13.20;9.05;;;;;;;20.72;100.00;99866.59;1437529;90;21508;-81
2023/08/27 02:07:17;;;;;;;19.90;9.38;;;;;;;20.77;100.00;99863.73;1426227;91;22367;-79
2023/08/27 02:09:44;;;;;;;11.12;9.13;;;;;;;20.81;100.00;99863.59;1429323;91;21384;-81
2023/08/27 02:12:10;;;;;;;10.45;8.70;;;;;;;20.83;100.00;99865.01;1435608;90;21567;-80
2023/08/27 02:14:36;;;;;;;12.35;8.48;;;;;;;20.83;100.00;99856.09;1423385;91;22375;-80
2023/08/27 02:17:04;;;;;;;11.70;9.03;;;;;;;20.83;100.00;99860.12;1435130;91;21417;-81
2023/08/27 02:19:30;;;;;;;17.95;9.70;;;;;;;20.87;100.00;99851.92;1438074;91;22352;-79
2023/08/27 02:21:56;;;;;;;19.25;9.85;;;;;;;20.90;100.00;99850.11;1437143;90;21957;-81
2023/08/27 02:24:22;;;;;;;13.58;8.93;;;;;;;20.93;100.00;99844.27;1432049;90;21455;-80
2023/08/27 02:26:48;;;;;;;11.30;8.93;;;;;;;20.97;100.00;99844.09;1426788;91;22286;-79
2023/08/27 02:29:14;;;;;;;11.20;9.28;;;;;;;21.00;100.00;99835.56;1417113;91;21481;-81
2023/08/27 02:31:41;;;;;;;13.22;10.00;;;;;;;21.01;100.00;99833.72;1433457;90;21353;-80
2023/08/27 02:34:07;;;;;;;15.13;10.60;;;;;;;21.01;100.00;99834.53;1427954;91;22145;-79
2023/08/27 02:36:33;;;;;;;18.87;9.33;;;;;;;20.99;100.00;99830.43;1425951;91;21442;-80
2023/08/27 02:39:00;;;;;;;16.30;9.75;;;;;;;20.96;100.00;99828.48;1435938;91;21405;-80
2023/08/27 02:41:26;;;;;;;11.60;9.20;;;;;;;20.95;100.00;99828.73;1437205;90;22315;-80
2023/08/27 02:43:52;;;;;;;12.78;9.18;;;;;;;20.95;100.00;99826.05;1417344;91;21585;-80
2023/08/27 02:46:18;;;;;;;14.80;9.18;;;;;;;20.95;100.00;99819.31;1430181;90;22470;-80
2023/08/27 02:48:44;;;;;;;16.70;9.85;;;;;;;20.98;100.00;99824.23;1435007;91;21404;-79
2023/08/27 02:51:10;;;;;;;16.25;9.18;;;;;;;20.98;100.00;99822.08;1424208;91;21386;-79
2023/08/27 02:53:36;;;;;;;12.18;9.80;;;;;;;20.97;100.00;99822.58;1424248;91;21593;-79
2023/08/27 02:56:03;;;;;;;15.75;10.75;;;;;;;20.99;100.00;99823.17;1431705;90;21323;-79
2023/08/27 02:58:29;;;;;;;14.13;10.43;;;;;;;21.00;100.00;99824.80;1437631;91;21438;-80
2023/08/27 03:00:56;;;;;;;17.00;8.43;;;;;;;21.01;100.00;99824.30;1414158;91;22293;-80
2023/08/27 03:03:22;;;;;;;11.12;8.90;;;;;;;20.99;100.00;99817.80;1424587;91;21521;-79
2023/08/27 03:05:48;;;;;;;12.18;9.50;;;;;;;21.01;100.00;99811.66;1423413;91;21488;-79
2023/08/27 03:08:15;;;;;;;13.50;10.28;;;;;;;21.04;100.00;99805.01;1409952;91;21565;-80
2023/08/27 03:10:41;;;;;;;15.83;10.32;;;;;;;21.06;100.00;99794.31;1431955;91;21383;-79
2023/08/27 03:13:07;;;;;;;16.37;10.30;;;;;;;21.06;100.00;99791.62;1425291;91;22292;-79
2023/08/27 03:15:33;;;;;;;14.00;10.48;;;;;;;21.05;100.00;99792.66;1431581;91;21427;-79
2023/08/27 03:17:59;;;;;;;15.08;9.05;;;;;;;21.04;100.00;99790.21;1435436;90;21390;-80
2023/08/27 03:20:26;;;;;;;16.40;10.13;;;;;;;21.04;100.00;99788.34;1434562;90;21360;-80
2023/08/27 03:22:53;;;;;;;15.88;9.70;;;;;;;21.04;100.00;99791.02;1432412;90;21338;-79
2023/08/27 03:25:19;;;;;;;14.30;8.58;;;;;;;21.03;100.00;99796.13;1423245;91;21391;-80
2023/08/27 03:27:45;;;;;;;15.08;9.00;;;;;;;21.03;100.00;99805.53;1428276;90;21515;-79
2023/08/27 03:30:12;;;;;;;16.65;9.25;;;;;;;20.99;100.00;99803.53;1431258;91;21370;-79
2023/08/27 03:32:38;;;;;;;15.72;9.50;;;;;;;20.91;100.00;99810.05;1430692;91;21442;-80
2023/08/27 03:35:06;;;;;;;21.25;8.95;;;;;;;20.84;100.00;99812.03;1414404;91;21592;-80
2023/08/27 03:37:32;;;;;;;13.68;9.15;;;;;;;20.79;100.00;99813.24;1429471;90;21450;-80
2023/08/27 03:40:00;;;;;;;14.65;9.15;;;;;;;20.74;100.00;99816.61;1424452;91;22191;-81
2023/08/27 03:42:27;;;;;;;14.38;9.30;;;;;;;20.70;100.00;99814.91;1435310;90;21646;-81
2023/08/27 03:44:53;;;;;;;13.45;8.93;;;;;;;20.63;100.00;99815.54;1423759;91;21429;-81
2023/08/27 03:47:19;;;;;;;12.88;9.43;;;;;;;20.45;100.00;99819.03;1427715;91;21392;-80
2023/08/27 03:49:45;;;;;;;19.75;9.63;;;;;;;20.32;100.00;99823.78;1421546;91;22316;-79
2023/08/27 03:52:11;;;;;;;17.52;9.78;;;;;;;20.27;100.00;99819.08;1421900;91;21370;-79
2023/08/27 03:54:37;;;;;;;13.10;9.23;;;;;;;20.26;100.00;99818.27;1429729;90;21590;-79
2023/08/27 03:57:04;;;;;;;21.93;10.18;;;;;;;20.25;100.00;99820.66;1421885;91;21429;-79
2023/08/27 03:59:30;;;;;;;12.35;10.38;;;;;;;20.22;100.00;99823.77;1431810;90;21626;-81
2023/08/27 04:01:56;;;;;;;16.25;9.18;;;;;;;20.19;100.00;99826.91;1399037;91;21370;-80
2023/08/27 04:04:23;;;;;;;15.20;10.50;;;;;;;20.17;100.00;99826.83;1432044;91;22310;-80
2023/08/27 04:06:49;;;;;;;13.08;9.68;;;;;;;20.14;100.00;99829.97;1423116;91;21572;-80
2023/08/27 04:09:16;;;;;;;12.15;9.83;;;;;;;20.09;100.00;99825.30;1420477;91;21458;-80
2023/08/27 04:11:42;;;;;;;13.83;10.13;;;;;;;20.06;100.00;99823.05;1422497;91;22303;-80
2023/08/27 04:14:08;;;;;;;13.60;11.55;;;;;;;20.04;100.00;99827.30;1433312;91;21368;-79
2023/08/27 04:16:34;;;;;;;11.48;10.08;;;;;;;20.03;100.00;99830.22;1419183;92;21629;-79
2023/08/27 04:19:00;;;;;;;14.73;11.18;;;;;;;20.05;100.00;99831.64;1429917;91;21355;-80
2023/08/27 04:21:27;;;;;;;15.78;10.75;;;;;;;20.10;100.00;99829.61;1428951;91;21378;-80
2023/08/27 04:23:55;;;;;;;14.65;9.40;;;;;;;20.18;100.00;99831.19;1438182;91;21363;-80
2023/08/27 04:26:22;;;;;;;23.92;9.90;;;;;;;20.25;100.00;99830.06;1433605;91;22531;-80
2023/08/27 04:28:50;;;;;;;18.35;11.53;;;;;;;20.33;100.00;99821.39;1428282;91;21856;-79
2023/08/27 04:31:16;;;;;;;15.68;9.98;;;;;;;20.40;100.00;99818.08;1426521;91;21414;-78
2023/08/27 04:33:43;;;;;;;12.47;10.00;;;;;;;20.48;100.00;99815.08;1437683;91;21483;-86
2023/08/27 04:36:09;;;;;;;15.05;10.30;;;;;;;20.57;100.00;99811.08;1440912;91;21304;-82
2023/08/27 04:38:35;;;;;;;23.12;11.60;;;;;;;20.66;100.00;99813.73;1427129;91;21341;-84
2023/08/27 04:41:02;;;;;;;18.42;11.45;;;;;;;20.76;100.00;99816.39;1427205;91;22237;-82
2023/08/27 04:43:28;;;;;;;14.03;10.55;;;;;;;20.84;100.00;99814.73;1438410;91;21349;-81
2023/08/27 04:45:54;;;;;;;17.45;10.75;;;;;;;20.93;100.00;99816.03;1430757;91;21429;-82
2023/08/27 04:48:20;;;;;;;18.23;10.18;;;;;;;21.02;100.00;99814.64;1429803;91;21297;-86
2023/08/27 04:50:47;;;;;;;17.87;9.83;;;;;;;21.11;100.00;99824.54;1413054;92;21480;-83
2023/08/27 04:53:14;;;;;;;14.20;10.35;;;;;;;21.22;100.00;99821.58;1429674;91;21576;-85
2023/08/27 04:55:40;;;;;;;19.82;10.58;;;;;;;21.31;100.00;99822.34;1430036;91;21444;-85
2023/08/27 04:58:08;;;;;;;20.25;11.70;;;;;;;21.39;100.00;99817.18;1427121;91;21634;-83
2023/08/27 05:00:35;;;;;;;17.15;9.90;;;;;;;21.48;100.00;99813.08;1433848;91;21415;-84
2023/08/27 05:03:02;;;;;;;12.58;9.48;;;;;;;21.58;100.00;99811.17;1433282;91;21326;-83
2023/08/27 05:05:28;;;;;;;14.65;8.78;;;;;;;21.67;100.00;99817.02;1426077;91;21614;-85
2023/08/27 05:07:55;;;;;;;11.40;9.80;;;;;;;21.77;100.00;99815.88;1407110;92;22229;-83
2023/08/27 05:10:21;;;;;;;12.60;8.65;;;;;;;21.88;100.00;99811.54;1443042;91;21408;-83
2023/08/27 05:12:47;;;;;;;13.35;9.73;;;;;;;21.98;100.00;99812.59;1428945;91;21462;-85
2023/08/27 05:15:16;;;;;;;15.75;9.28;;;;;;;22.05;100.00;99805.17;1430002;91;22265;-83
2023/08/27 05:17:41;;;;;;;22.07;9.33;;;;;;;22.14;100.00;99806.97;1430881;91;21477;-80
2023/08/27 05:20:09;;;;;;;31.27;10.30;;;;;;;22.24;100.00;99810.41;1450195;91;21524;-83
2023/08/27 05:22:36;;;;;;;14.13;9.83;;;;;;;22.30;100.00;99814.88;1438705;91;21272;-84
2023/08/27 05:25:04;;;;;;;12.13;10.15;;;;;;;22.34;100.00;99816.55;1428750;91;21435;-81
2023/08/27 05:27:30;;;;;;;11.55;9.15;;;;;;;22.41;100.00;99812.67;1471710;88;21376;-86
2023/08/27 05:29:56;;;;;;;15.30;8.60;;;;;;;22.50;100.00;99819.31;1424468;91;22276;-82
2023/08/27 05:32:22;;;;;;;15.68;9.45;;;;;;;22.62;100.00;99819.80;1438426;90;21353;-85
2023/08/27 05:34:48;;;;;;;21.75;9.25;;;;;;;22.70;100.00;99816.68;1441182;91;21493;-86
2023/08/27 05:37:15;;;;;;;19.92;9.58;;;;;;;22.79;100.00;99819.30;1443892;91;21345;-85
2023/08/27 05:39:41;;;;;;;13.70;9.23;;;;;;;22.88;100.00;99821.88;1434677;91;21353;-85
2023/08/27 05:42:07;;;;;;;13.08;8.63;;;;;;;22.99;100.00;99824.27;1475242;88;23047;-87
2023/08/27 05:44:33;;;;;;;13.62;8.28;;;;;;;23.12;100.00;99827.16;1437093;90;21898;-86
2023/08/27 05:46:59;;;;;;;17.37;8.18;;;;;;;23.25;100.00;99822.80;1435682;90;21359;-84
2023/08/27 05:49:25;;;;;;;10.63;6.87;;;;;;;23.35;100.00;99824.30;1434316;91;22248;-86
2023/08/27 05:51:52;;;;;;;12.70;7.67;;;;;;;23.50;100.00;99822.89;1440175;90;21294;-86
2023/08/27 05:54:18;;;;;;;14.28;8.98;;;;;;;23.60;100.00;99821.17;1438040;90;21523;-84
2023/08/27 05:56:44;;;;;;;13.48;8.98;;;;;;;23.73;100.00;99821.91;1439383;90;21390;-85
2023/08/27 05:59:13;;;;;;;10.72;7.35;;;;;;;23.81;100.00;99825.00;1446188;90;22783;-87
2023/08/27 06:01:38;;;;;;;12.90;7.97;;;;;;;23.89;100.00;99815.66;1441284;90;22336;-83
2023/08/27 06:04:04;;;;;;;12.98;7.62;;;;;;;24.02;100.00;99819.86;1404265;91;21463;-83
2023/08/27 06:06:30;;;;;;;10.60;6.30;;;;;;;24.17;100.00;99811.12;1435244;90;21463;-85
2023/08/27 06:08:56;;;;;;;14.65;7.37;;;;;;;24.32;100.00;99814.02;1438395;90;21368;-81
2023/08/27 06:11:22;;;;;;;10.93;7.78;;;;;;;24.48;100.00;99814.48;1433110;90;21516;-80
2023/08/27 06:13:49;;;;;;;8.28;6.45;;;;;;;24.63;100.00;99815.20;1479353;88;22330;-81
2023/08/27 06:16:15;;;;;;;15.60;7.65;;;;;;;24.76;100.00;99810.72;1440483;90;21413;-86
2023/08/27 06:18:41;;;;;;;14.68;7.70;;;;;;;24.91;100.00;99816.80;1436899;91;21582;-85
2023/08/27 06:21:08;;;;;;;14.03;7.65;;;;;;;25.06;100.00;99823.42;1426312;91;21353;-91
2023/08/27 06:23:34;;;;;;;12.18;8.03;;;;;;;25.20;100.00;99821.44;1434745;90;22325;-84
2023/08/27 06:26:05;;;;;;;11.70;6.58;;;;;;;25.35;100.00;99826.69;1430935;91;22802;-87
2023/08/27 06:28:32;;;;;;;10.20;7.37;;;;;;;25.49;100.00;99827.03;1425171;91;22403;-91
2023/08/27 06:31:00;;;;;;;11.18;7.40;;;;;;;25.65;100.00;99829.59;1431044;90;21405;-86
2023/08/27 06:33:26;;;;;;;8.80;6.50;;;;;;;25.82;100.00;99827.25;1434168;90;21538;-91
2023/08/27 06:35:53;;;;;;;9.65;6.45;;;;;;;25.96;100.00;99835.77;1423219;91;21658;-88
2023/08/27 06:38:19;;;;;;;12.82;6.75;;;;;;;26.08;100.00;99827.67;1441115;91;21376;-87
2023/08/27 06:40:45;;;;;;;17.32;7.95;;;;;;;26.24;100.00;99824.50;1429833;91;21530;-84
2023/08/27 06:43:12;;;;;;;10.20;6.92;;;;;;;26.38;100.00;99815.30;1437954;90;21510;-91
2023/08/27 06:45:38;;;;;;;15.18;6.30;;;;;;;26.50;100.00;99817.28;1425269;91;22330;-89
2023/08/27 06:48:04;;;;;;;8.80;6.90;;;;;;;26.63;100.00;99818.66;1431427;90;21368;-88
2023/08/27 06:50:31;;;;;;;11.03;6.65;;;;;;;26.75;100.00;99817.85;1425426;91;21562;-88
2023/08/27 06:52:57;;;;;;;14.50;7.22;;;;;;;26.84;100.00;99818.68;1435665;90;21404;-85
2023/08/27 06:55:23;;;;;;;8.40;7.30;;;;;;;26.93;100.00;99817.89;1427630;91;21385;-89
2023/08/27 06:57:50;;;;;;;15.38;6.42;;;;;;;27.08;100.00;99823.06;1428055;90;21360;-92
2023/08/27 07:00:17;;;;;;;8.70;6.78;;;;;;;27.18;100.00;99811.66;1429332;91;21414;-83
2023/08/27 07:02:44;;;;;;;16.20;7.03;;;;;;;27.29;100.00;99805.69;1438489;91;21612;-92
2023/08/27 07:05:10;;;;;;;14.28;7.22;;;;;;;27.42;100.00;99800.25;1430656;91;21474;-88
2023/08/27 07:07:38;;;;;;;15.88;6.80;;;;;;;27.52;100.00;99798.86;1429345;91;21319;-88
2023/08/27 07:10:07;;;;;;;13.62;7.37;;;;;;;27.64;100.00;99803.99;1431602;91;21585;-86
2023/08/27 07:12:35;;;;;;;9.13;6.87;;;;;;;27.76;100.00;99803.13;1427670;90;21368;-88
2023/08/27 07:15:03;;;;;;;10.88;6.72;;;;;;;27.88;100.00;99799.61;1427510;91;21353;-85
2023/08/27 07:17:32;;;;;;;10.90;7.30;;;;;;;28.01;100.00;99796.02;1434142;91;21659;-85
2023/08/27 07:19:58;;;;;;;14.58;8.45;;;;;;;28.15;100.00;99792.97;1364977;90;21390;-90
2023/08/27 07:22:25;;;;;;;10.68;7.42;;;;;;;28.30;100.00;99792.88;1356599;91;21259;-81
2023/08/27 07:24:52;;;;;;;9.98;6.53;;;;;;;28.41;100.00;99789.56;1360689;90;21606;-85
2023/08/27 07:27:18;;;;;;;17.95;7.37;;;;;;;28.49;100.00;99792.28;1327820;94;21208;-86
2023/08/27 07:29:45;;;;;;;14.73;6.72;;;;;;;28.59;100.00;99788.11;1361560;90;21250;-82
2023/08/27 07:32:11;;;;;;;9.23;7.25;;;;;;;28.70;100.00;99785.59;1367539;91;21339;-85
2023/08/27 07:34:37;;;;;;;7.45;6.65;;;;;;;28.85;100.00;99792.02;1356448;91;21245;-84
2023/08/27 07:37:04;;;;;;;8.03;6.42;;;;;;;28.97;100.00;99785.64;1356714;91;21267;-87
2023/08/27 07:39:30;;;;;;;19.17;6.40;;;;;;;29.07;100.00;99777.98;1356892;91;21282;-85
2023/08/27 07:41:58;;;;;;;12.58;6.60;;;;;;;29.17;100.00;99778.69;1357014;91;21422;-91
2023/08/27 07:44:25;;;;;;;11.48;6.37;;;;;;;29.29;100.00;99778.33;1359943;91;21415;-89
2023/08/27 07:46:51;;;;;;;8.90;6.95;;;;;;;29.46;100.00;99775.97;1513480;90;21140;-80
2023/08/27 07:49:17;;;;;;;12.70;7.15;;;;;;;29.60;100.00;99774.70;1362044;90;21390;-92
2023/08/27 07:51:43;;;;;;;15.95;7.33;;;;;;;29.77;100.00;99772.11;1362171;90;21265;-89
2023/08/27 07:54:10;;;;;;;12.55;6.78;;;;;;;29.92;100.00;99776.00;1356702;91;21386;-81
2023/08/27 07:56:36;;;;;;;9.25;6.60;;;;;;;30.06;100.00;99767.36;1361311;91;21228;-85
2023/08/27 07:59:03;;;;;;;7.33;5.90;;;;;;;30.19;100.00;99773.22;1362467;91;21437;-86
2023/08/27 08:01:29;;;;;;;8.95;7.17;;;;;;;30.33;100.00;99781.78;1487496;91;21304;-90
2023/08/27 08:03:55;;;;;;;14.15;7.30;;;;;;;30.46;100.00;99773.95;1356751;91;21260;-86
2023/08/27 08:06:22;;;;;;;13.90;6.78;;;;;;;30.55;100.00;99772.97;1357133;91;21391;-89
2023/08/27 08:08:48;;;;;;;13.13;6.78;;;;;;;30.66;100.00;99773.64;1356348;91;21253;-86
2023/08/27 08:11:15;;;;;;;14.13;6.78;;;;;;;30.80;100.00;99775.09;1356793;91;21408;-85
2023/08/27 08:13:43;;;;;;;16.95;6.65;;;;;;;30.93;100.00;99779.81;1366772;90;21455;-82
2023/08/27 08:16:09;;;;;;;16.10;6.53;;;;;;;31.09;100.00;99777.61;1355318;91;21393;-91
2023/08/27 08:18:36;;;;;;;9.73;6.12;;;;;;;31.23;100.00;99772.98;1505953;91;21311;-82
2023/08/27 08:21:02;;;;;;;12.15;6.53;;;;;;;31.38;100.00;99769.19;1361544;90;21206;-84
2023/08/27 08:23:28;;;;;;;14.70;6.62;;;;;;;31.52;100.00;99769.77;1361902;90;21280;-89
2023/08/27 08:25:56;;;;;;;11.35;6.65;;;;;;;31.61;100.00;99770.67;1344114;92;22287;-86
2023/08/27 08:28:22;;;;;;;9.98;5.95;;;;;;;31.66;100.00;99771.95;1342076;92;21416;-84
2023/08/27 08:30:49;;;;;;;11.03;6.60;;;;;;;31.73;100.00;99767.43;1357062;91;21274;-89
2023/08/27 08:33:16;;;;;;;11.78;6.55;;;;;;;31.80;100.00;99761.81;1356161;91;22096;-83
2023/08/27 08:35:43;;;;;;;10.85;7.12;;;;;;;31.90;100.00;99753.41;1356078;91;21378;-84
2023/08/27 08:38:10;;;;;;;8.75;6.45;;;;;;;32.06;100.00;99758.58;1361053;90;21184;-90
2023/08/27 08:40:48;;;;;;;11.45;7.37;;;;;;;32.21;100.00;99748.64;1366973;91;21310;-81
2023/08/27 08:43:40;;;;;;;9.28;6.40;;;;;;;32.31;99.31;99752.53;1514229;91;21177;-90
2023/08/27 08:46:08;;;;;;;13.48;7.25;;;;;;;32.39;97.77;99748.23;1358849;91;22174;-87
2023/08/27 08:48:41;;;;;;;87.17;11.33;;;;;;;32.47;97.00;99744.79;1359751;91;21324;-80
2023/08/27 08:51:13;;;;;;;8.03;6.75;;;;;;;32.55;94.90;99745.98;1513303;91;21343;-79
2023/08/27 08:53:46;;;;;;;7.33;6.60;;;;;;;32.59;94.59;99736.02;1354479;91;21208;-80
2023/08/27 08:56:16;;;;;;;17.87;7.53;;;;;;;32.65;93.77;99739.44;1365248;90;21553;-80
2023/08/27 08:58:47;;;;;;;14.58;6.70;;;;;;;32.68;94.33;99734.14;1353710;92;21393;-79
2023/08/27 09:01:15;;;;;;;12.58;6.92;;;;;;;32.74;94.51;99727.44;1513077;90;22167;-79
2023/08/27 09:03:46;;;;;;;16.95;6.97;;;;;;;32.84;94.32;99724.19;1359284;91;21198;-79
2023/08/27 09:06:12;;;;;;;9.30;6.83;;;;;;;32.95;85.33;99724.17;1354927;91;21473;-79
2023/08/27 09:08:39;;;;;;;8.95;6.78;;;;;;;32.99;85.83;99722.44;1361625;91;22272;-78
2023/08/27 09:11:05;;;;;;;13.45;7.28;;;;;;;33.05;83.78;99714.33;1361335;91;21184;-81
2023/08/27 09:13:34;;;;;;;9.65;6.80;;;;;;;33.07;73.19;99709.34;1355756;91;21230;-79
2023/08/27 09:16:00;;;;;;;11.30;6.97;;;;;;;33.16;74.15;99706.65;1355714;91;21426;-81
2023/08/27 09:18:26;;;;;;;14.25;7.17;;;;;;;33.30;74.67;99706.55;1476053;91;21326;-81
2023/08/27 09:20:52;;;;;;;13.38;7.75;;;;;;;33.45;74.08;99704.17;1361856;90;21402;-81
2023/08/27 09:23:19;;;;;;;11.20;7.42;;;;;;;33.54;73.47;99697.94;1361668;91;21508;-80
2023/08/27 09:25:45;;;;;;;14.35;7.33;;;;;;;33.61;72.92;99696.36;1432508;90;21485;-81
2023/08/27 09:28:14;;;;;;;14.53;6.95;;;;;;;33.69;72.89;99691.45;1363271;91;21206;-79
2023/08/27 09:30:40;;;;;;;14.55;7.30;;;;;;;33.76;70.32;99690.17;1426023;91;21411;-81
2023/08/27 09:33:06;;;;;;;15.60;7.58;;;;;;;33.83;71.90;99691.30;1426507;91;21682;-80
2023/08/27 09:35:41;;;;;;;16.02;8.13;;;;;;;33.93;70.38;99687.45;1429361;90;21825;-82
2023/08/27 09:38:15;;;;;;;11.75;7.67;;;;;;;33.99;61.79;99688.10;1431805;91;21383;-79
2023/08/27 09:40:41;;;;;;;16.25;7.00;;;;;;;34.08;58.23;99689.73;1425131;91;22131;-80
2023/08/27 09:50:16;;;;;;;11.18;7.30;;;;;;;34.33;49.55;99676.34;1507269;91;21275;-80
2023/08/27 09:52:45;;;;;;;15.78;7.80;;;;;;;34.39;42.54;99691.52;1354774;91;21408;-81
2023/08/27 09:55:16;;;;;;;13.68;6.97;;;;;;;34.42;42.10;99682.63;1358585;90;21391;-79
2023/08/27 09:57:49;;;;;;;14.73;8.00;;;;;;;34.48;41.01;99679.14;1360278;90;21405;-79
2023/08/27 10:00:18;;;;;;;17.00;7.10;;;;;;;34.47;40.38;99681.63;1341536;92;21372;-80
2023/08/27 10:02:46;;;;;;;13.20;8.53;;;;;;;34.48;39.80;99675.83;1396830;91;21951;-81
2023/08/27 10:05:12;;;;;;;12.73;7.03;;;;;;;34.46;40.23;99680.83;1437785;90;21597;-80
2023/08/27 10:07:39;;;;;;;12.15;7.12;;;;;;;34.53;40.49;99680.36;1435246;91;22201;-78
2023/08/27 10:10:07;;;;;;;15.72;7.30;;;;;;;34.63;40.68;99684.72;1425286;90;21501;-81
2023/08/27 10:12:35;;;;;;;12.58;7.55;;;;;;;34.65;40.13;99693.45;1360011;90;21228;-80
2023/08/27 10:15:04;;;;;;;12.47;6.57;;;;;;;34.69;39.54;99688.91;1359539;90;21354;-81
2023/08/27 10:17:30;;;;;;;11.90;8.20;;;;;;;34.75;39.93;99691.72;1480199;91;22345;-81
2023/08/27 10:20:01;;;;;;;20.45;7.20;;;;;;;34.80;39.85;99679.18;1511603;90;21170;-80
2023/08/27 10:22:28;;;;;;;14.58;7.90;;;;;;;34.82;39.11;99676.92;1505470;91;21179;-82
2023/08/27 10:24:56;;;;;;;13.80;7.72;;;;;;;34.96;39.72;99672.02;1354123;91;21391;-80
2023/08/27 10:27:22;;;;;;;13.18;7.25;;;;;;;35.06;39.47;99672.82;1359329;90;21311;-80
2023/08/27 10:29:51;;;;;;;11.73;7.60;;;;;;;35.08;38.57;99671.94;1365348;91;21258;-80
2023/08/27 10:32:17;;;;;;;12.77;7.57;;;;;;;35.08;38.58;99665.86;1511809;91;21468;-80
2023/08/27 10:34:44;;;;;;;13.98;7.40;;;;;;;35.16;38.10;99660.06;1355561;91;21364;-81
2023/08/27 10:37:11;;;;;;;12.85;6.55;;;;;;;35.14;37.37;99667.86;1337585;93;21266;-80
2023/08/27 10:39:38;;;;;;;12.63;7.58;;;;;;;35.16;37.58;99665.56;1359110;90;21349;-80
2023/08/27 10:42:05;;;;;;;14.50;7.70;;;;;;;35.14;37.33;99658.23;1341222;93;21268;-80
2023/08/27 10:44:32;;;;;;;10.40;7.10;;;;;;;35.17;37.70;99658.37;1360402;91;22192;-79
2023/08/27 10:47:17;;;;;;;8.73;6.70;;;;;;;35.25;37.65;99656.73;1503577;91;21385;-81
2023/08/27 10:49:49;;;;;;;18.92;7.65;;;;;;;35.33;37.52;99657.22;1506058;90;21347;-79
2023/08/27 10:52:18;;;;;;;13.05;7.97;;;;;;;35.41;37.60;99658.33;1357638;92;21471;-81
2023/08/27 10:54:51;;;;;;;12.55;6.75;;;;;;;35.42;37.03;99658.01;1350930;93;22140;-80
2023/08/27 10:57:21;;;;;;;11.10;6.83;;;;;;;35.45;36.97;99651.84;1505323;90;21559;-81
2023/08/27 10:59:48;;;;;;;12.07;8.28;;;;;;;35.54;36.83;99650.98;1511579;91;21206;-79
2023/08/27 11:02:16;;;;;;;13.20;7.22;;;;;;;35.56;36.57;99650.09;1359974;91;21318;-79
2023/08/27 11:04:49;;;;;;;20.92;7.70;;;;;;;35.62;36.86;99646.83;1358496;91;22146;-79
2023/08/27 11:07:18;;;;;;;12.18;8.25;;;;;;;35.68;36.71;99641.94;1512347;90;21266;-80
2023/08/27 11:09:55;;;;;;;11.05;5.95;;;;;;;35.72;36.45;99637.36;1357916;90;21273;-80
2023/08/27 11:12:30;;;;;;;15.90;7.30;;;;;;;35.76;35.81;99631.98;1499552;91;21362;-79
2023/08/27 11:15:12;;;;;;;11.38;7.35;;;;;;;35.78;35.52;99631.89;1489660;91;21319;-81
2023/08/27 11:17:40;;;;;;;12.58;6.65;;;;;;;35.82;35.64;99631.47;1488059;91;21467;-81
2023/08/27 11:20:24;;;;;;;11.97;6.90;;;;;;;35.91;35.72;99618.44;1511607;90;21199;-81
2023/08/27 11:23:02;;;;;;;15.83;6.37;;;;;;;36.05;36.10;99622.31;1357048;90;21214;-81
2023/08/27 11:25:30;;;;;;;16.45;6.53;;;;;;;36.17;35.27;99617.42;1407890;91;21481;-81
2023/08/27 11:28:00;;;;;;;10.45;6.62;;;;;;;36.15;34.81;99619.70;1422274;91;21451;-80